sensor_id;sensor_type;location;lat;lon;timestamp;P1;durP1;ratioP1;P2;durP2;ratioP2
33268;SDS011;19640;50.944;5.260;2023-02-01T00:01:43;20.38;;;6.35;;
33268;SDS011;19640;50.944;5.260;2023-02-01T00:04:09;14.80;;;5.88;;
33268;SDS011;19640;50.944;5.260;2023-02-01T00:06:35;25.42;;;6.35;;
33268;SDS011;19640;50.944;5.260;2023-02-01T00:09:00;27.13;;;6.13;;
33268;SDS011;19640;50.944;5.260;2023-02-01T00:11:26;19.88;;;6.50;;
33268;SDS011;19640;50.944;5.260;2023-02-01T00:13:52;19.35;;;7.45;;
33268;SDS011;19640;50.944;5.260;2023-02-01T00:16:19;18.90;;;6.53;;
33268;SDS011;19640;50.944;5.260;2023-02-01T00:18:46;21.00;;;7.55;;
33268;SDS011;19640;50.944;5.260;2023-02-01T00:21:14;11.35;;;7.45;;
33268;SDS011;19640;50.944;5.260;2023-02-01T00:23:40;24.88;;;8.10;;
33268;SDS011;19640;50.944;5.260;2023-02-01T00:26:07;25.85;;;8.43;;
33268;SDS011;19640;50.944;5.260;2023-02-01T00:28:38;19.10;;;8.90;;
33268;SDS011;19640;50.944;5.260;2023-02-01T00:31:04;18.23;;;8.40;;
33268;SDS011;19640;50.944;5.260;2023-02-01T00:33:30;19.95;;;7.78;;
33268;SDS011;19640;50.944;5.260;2023-02-01T00:36:00;19.30;;;8.27;;
33268;SDS011;19640;50.944;5.260;2023-02-01T00:38:28;25.48;;;8.57;;
33268;SDS011;19640;50.944;5.260;2023-02-01T00:41:01;23.95;;;9.68;;
33268;SDS011;19640;50.944;5.260;2023-02-01T00:43:28;25.17;;;9.13;;
33268;SDS011;19640;50.944;5.260;2023-02-01T00:45:53;23.67;;;9.95;;
33268;SDS011;19640;50.944;5.260;2023-02-01T00:48:19;15.63;;;9.65;;
33268;SDS011;19640;50.944;5.260;2023-02-01T00:50:44;18.23;;;7.72;;
33268;SDS011;19640;50.944;5.260;2023-02-01T00:53:10;18.70;;;9.15;;
33268;SDS011;19640;50.944;5.260;2023-02-01T00:55:36;24.05;;;8.85;;
33268;SDS011;19640;50.944;5.260;2023-02-01T00:58:02;28.30;;;8.15;;
33268;SDS011;19640;50.944;5.260;2023-02-01T01:00:31;21.85;;;9.25;;
33268;SDS011;19640;50.944;5.260;2023-02-01T01:02:58;18.30;;;7.40;;
33268;SDS011;19640;50.944;5.260;2023-02-01T01:05:23;24.02;;;8.55;;
33268;SDS011;19640;50.944;5.260;2023-02-01T01:07:49;19.73;;;6.88;;
33268;SDS011;19640;50.944;5.260;2023-02-01T01:10:15;21.05;;;7.50;;
33268;SDS011;19640;50.944;5.260;2023-02-01T01:12:41;12.68;;;6.88;;
33268;SDS011;19640;50.944;5.260;2023-02-01T01:15:06;21.25;;;7.60;;
33268;SDS011;19640;50.944;5.260;2023-02-01T01:17:33;25.83;;;7.80;;
33268;SDS011;19640;50.944;5.260;2023-02-01T01:19:58;16.85;;;7.45;;
33268;SDS011;19640;50.944;5.260;2023-02-01T01:22:24;19.38;;;7.50;;
33268;SDS011;19640;50.944;5.260;2023-02-01T01:24:49;18.50;;;8.15;;
33268;SDS011;19640;50.944;5.260;2023-02-01T01:27:15;18.35;;;8.50;;
33268;SDS011;19640;50.944;5.260;2023-02-01T01:29:47;20.23;;;8.38;;
33268;SDS011;19640;50.944;5.260;2023-02-01T01:32:13;17.40;;;8.35;;
33268;SDS011;19640;50.944;5.260;2023-02-01T01:34:39;22.67;;;9.60;;
33268;SDS011;19640;50.944;5.260;2023-02-01T01:37:04;20.75;;;8.93;;
33268;SDS011;19640;50.944;5.260;2023-02-01T01:39:30;24.60;;;10.05;;
33268;SDS011;19640;50.944;5.260;2023-02-01T01:41:56;23.15;;;9.85;;
33268;SDS011;19640;50.944;5.260;2023-02-01T01:47:40;21.75;;;8.77;;
33268;SDS011;19640;50.944;5.260;2023-02-01T01:50:14;19.50;;;8.90;;
33268;SDS011;19640;50.944;5.260;2023-02-01T01:52:43;20.90;;;9.55;;
33268;SDS011;19640;50.944;5.260;2023-02-01T01:55:14;28.42;;;10.55;;
33268;SDS011;19640;50.944;5.260;2023-02-01T01:57:44;20.65;;;9.00;;
33268;SDS011;19640;50.944;5.260;2023-02-01T02:00:15;22.58;;;11.57;;
33268;SDS011;19640;50.944;5.260;2023-02-01T02:02:45;28.02;;;10.88;;
33268;SDS011;19640;50.944;5.260;2023-02-01T02:05:12;24.98;;;10.52;;
33268;SDS011;19640;50.944;5.260;2023-02-01T02:07:40;25.52;;;9.85;;
33268;SDS011;19640;50.944;5.260;2023-02-01T02:10:11;29.27;;;9.75;;
33268;SDS011;19640;50.944;5.260;2023-02-01T02:12:41;21.52;;;8.40;;
33268;SDS011;19640;50.944;5.260;2023-02-01T02:15:10;28.35;;;8.77;;
33268;SDS011;19640;50.944;5.260;2023-02-01T02:17:44;23.48;;;8.70;;
33268;SDS011;19640;50.944;5.260;2023-02-01T02:23:12;14.95;;;6.85;;
33268;SDS011;19640;50.944;5.260;2023-02-01T02:25:55;20.17;;;6.95;;
33268;SDS011;19640;50.944;5.260;2023-02-01T02:34:28;18.15;;;4.90;;
33268;SDS011;19640;50.944;5.260;2023-02-01T02:40:07;11.30;;;3.65;;
33268;SDS011;19640;50.944;5.260;2023-02-01T02:42:59;18.13;;;3.67;;
33268;SDS011;19640;50.944;5.260;2023-02-01T02:45:51;18.35;;;4.25;;
33268;SDS011;19640;50.944;5.260;2023-02-01T02:48:51;11.82;;;2.83;;
33268;SDS011;19640;50.944;5.260;2023-02-01T02:54:47;18.27;;;3.00;;
33268;SDS011;19640;50.944;5.260;2023-02-01T02:57:29;15.07;;;2.60;;
33268;SDS011;19640;50.944;5.260;2023-02-01T03:00:19;16.52;;;2.75;;
33268;SDS011;19640;50.944;5.260;2023-02-01T03:03:08;10.95;;;2.67;;
33268;SDS011;19640;50.944;5.260;2023-02-01T03:05:53;15.13;;;3.15;;
33268;SDS011;19640;50.944;5.260;2023-02-01T03:08:22;17.60;;;2.25;;
33268;SDS011;19640;50.944;5.260;2023-02-01T03:10:58;10.73;;;2.80;;
33268;SDS011;19640;50.944;5.260;2023-02-01T03:19:09;12.65;;;2.70;;
33268;SDS011;19640;50.944;5.260;2023-02-01T03:21:53;19.50;;;2.75;;
33268;SDS011;19640;50.944;5.260;2023-02-01T03:27:07;18.73;;;3.20;;
33268;SDS011;19640;50.944;5.260;2023-02-01T03:29:44;9.98;;;2.30;;
33268;SDS011;19640;50.944;5.260;2023-02-01T03:32:23;22.02;;;3.58;;
33268;SDS011;19640;50.944;5.260;2023-02-01T03:34:48;14.65;;;2.85;;
33268;SDS011;19640;50.944;5.260;2023-02-01T03:37:25;15.57;;;2.28;;
33268;SDS011;19640;50.944;5.260;2023-02-01T03:39:59;14.15;;;2.83;;
33268;SDS011;19640;50.944;5.260;2023-02-01T03:42:34;23.67;;;2.53;;
33268;SDS011;19640;50.944;5.260;2023-02-01T03:45:06;10.95;;;2.58;;
33268;SDS011;19640;50.944;5.260;2023-02-01T03:47:42;13.65;;;2.30;;
33268;SDS011;19640;50.944;5.260;2023-02-01T03:50:14;15.30;;;2.63;;
33268;SDS011;19640;50.944;5.260;2023-02-01T03:52:43;12.95;;;2.72;;
33268;SDS011;19640;50.944;5.260;2023-02-01T03:55:09;16.77;;;2.67;;
33268;SDS011;19640;50.944;5.260;2023-02-01T03:57:50;21.92;;;4.38;;
33268;SDS011;19640;50.944;5.260;2023-02-01T04:00:21;13.95;;;2.88;;
33268;SDS011;19640;50.944;5.260;2023-02-01T04:02:48;11.48;;;2.38;;
33268;SDS011;19640;50.944;5.260;2023-02-01T04:05:14;18.58;;;2.53;;
33268;SDS011;19640;50.944;5.260;2023-02-01T04:07:41;19.05;;;3.67;;
33268;SDS011;19640;50.944;5.260;2023-02-01T04:10:07;12.65;;;2.90;;
33268;SDS011;19640;50.944;5.260;2023-02-01T04:12:34;19.58;;;2.65;;
33268;SDS011;19640;50.944;5.260;2023-02-01T04:15:00;15.48;;;2.38;;
33268;SDS011;19640;50.944;5.260;2023-02-01T04:17:25;12.70;;;3.03;;
33268;SDS011;19640;50.944;5.260;2023-02-01T04:19:51;34.70;;;4.43;;
33268;SDS011;19640;50.944;5.260;2023-02-01T04:22:16;12.93;;;3.42;;
33268;SDS011;19640;50.944;5.260;2023-02-01T04:24:42;14.05;;;2.05;;
33268;SDS011;19640;50.944;5.260;2023-02-01T04:27:08;10.55;;;2.35;;
33268;SDS011;19640;50.944;5.260;2023-02-01T04:29:33;16.55;;;3.60;;
33268;SDS011;19640;50.944;5.260;2023-02-01T04:31:59;13.05;;;3.17;;
33268;SDS011;19640;50.944;5.260;2023-02-01T04:34:24;14.50;;;4.40;;
33268;SDS011;19640;50.944;5.260;2023-02-01T04:36:51;9.02;;;2.25;;
33268;SDS011;19640;50.944;5.260;2023-02-01T04:39:17;15.60;;;3.05;;
33268;SDS011;19640;50.944;5.260;2023-02-01T04:41:42;15.23;;;2.72;;
33268;SDS011;19640;50.944;5.260;2023-02-01T04:44:15;18.38;;;2.85;;
33268;SDS011;19640;50.944;5.260;2023-02-01T04:46:42;19.15;;;3.03;;
33268;SDS011;19640;50.944;5.260;2023-02-01T04:49:10;15.68;;;2.33;;
33268;SDS011;19640;50.944;5.260;2023-02-01T04:51:37;14.85;;;2.67;;
33268;SDS011;19640;50.944;5.260;2023-02-01T04:54:03;11.25;;;2.65;;
33268;SDS011;19640;50.944;5.260;2023-02-01T04:56:29;14.30;;;2.75;;
33268;SDS011;19640;50.944;5.260;2023-02-01T04:58:55;14.27;;;2.50;;
33268;SDS011;19640;50.944;5.260;2023-02-01T05:01:22;18.73;;;3.08;;
33268;SDS011;19640;50.944;5.260;2023-02-01T05:03:48;18.55;;;3.78;;
33268;SDS011;19640;50.944;5.260;2023-02-01T05:06:13;12.90;;;2.60;;
33268;SDS011;19640;50.944;5.260;2023-02-01T05:08:39;15.10;;;2.67;;
33268;SDS011;19640;50.944;5.260;2023-02-01T05:11:05;20.08;;;2.85;;
33268;SDS011;19640;50.944;5.260;2023-02-01T05:13:31;16.40;;;3.08;;
33268;SDS011;19640;50.944;5.260;2023-02-01T05:16:15;18.40;;;3.30;;
33268;SDS011;19640;50.944;5.260;2023-02-01T05:18:41;14.85;;;2.67;;
33268;SDS011;19640;50.944;5.260;2023-02-01T05:21:06;18.70;;;2.83;;
33268;SDS011;19640;50.944;5.260;2023-02-01T05:23:32;11.05;;;2.20;;
33268;SDS011;19640;50.944;5.260;2023-02-01T05:26:18;23.23;;;2.97;;
33268;SDS011;19640;50.944;5.260;2023-02-01T05:28:43;25.02;;;4.38;;
33268;SDS011;19640;50.944;5.260;2023-02-01T05:31:10;14.32;;;3.13;;
33268;SDS011;19640;50.944;5.260;2023-02-01T05:33:36;26.23;;;3.05;;
33268;SDS011;19640;50.944;5.260;2023-02-01T05:36:02;13.65;;;1.92;;
33268;SDS011;19640;50.944;5.260;2023-02-01T05:38:28;17.45;;;2.58;;
33268;SDS011;19640;50.944;5.260;2023-02-01T05:40:55;18.88;;;2.58;;
33268;SDS011;19640;50.944;5.260;2023-02-01T05:43:21;13.68;;;2.50;;
33268;SDS011;19640;50.944;5.260;2023-02-01T05:45:47;17.50;;;2.75;;
33268;SDS011;19640;50.944;5.260;2023-02-01T05:48:13;16.40;;;3.53;;
33268;SDS011;19640;50.944;5.260;2023-02-01T05:50:38;8.48;;;2.75;;
33268;SDS011;19640;50.944;5.260;2023-02-01T05:53:04;12.93;;;2.55;;
33268;SDS011;19640;50.944;5.260;2023-02-01T05:55:30;17.23;;;2.72;;
33268;SDS011;19640;50.944;5.260;2023-02-01T05:57:56;17.95;;;2.15;;
33268;SDS011;19640;50.944;5.260;2023-02-01T06:00:22;20.90;;;2.33;;
33268;SDS011;19640;50.944;5.260;2023-02-01T06:02:48;22.52;;;2.92;;
33268;SDS011;19640;50.944;5.260;2023-02-01T06:05:14;17.50;;;3.40;;
33268;SDS011;19640;50.944;5.260;2023-02-01T06:07:40;11.75;;;2.40;;
33268;SDS011;19640;50.944;5.260;2023-02-01T06:10:05;24.35;;;3.22;;
33268;SDS011;19640;50.944;5.260;2023-02-01T06:12:31;19.05;;;3.22;;
33268;SDS011;19640;50.944;5.260;2023-02-01T06:14:57;14.95;;;2.75;;
33268;SDS011;19640;50.944;5.260;2023-02-01T06:17:24;18.20;;;3.58;;
33268;SDS011;19640;50.944;5.260;2023-02-01T06:19:50;17.17;;;2.95;;
33268;SDS011;19640;50.944;5.260;2023-02-01T06:22:16;14.75;;;3.15;;
33268;SDS011;19640;50.944;5.260;2023-02-01T06:24:42;16.98;;;3.30;;
33268;SDS011;19640;50.944;5.260;2023-02-01T06:27:08;24.08;;;3.38;;
33268;SDS011;19640;50.944;5.260;2023-02-01T06:29:34;17.10;;;3.05;;
33268;SDS011;19640;50.944;5.260;2023-02-01T06:32:00;10.25;;;2.88;;
33268;SDS011;19640;50.944;5.260;2023-02-01T06:34:26;17.27;;;2.50;;
33268;SDS011;19640;50.944;5.260;2023-02-01T06:36:52;20.90;;;2.75;;
33268;SDS011;19640;50.944;5.260;2023-02-01T06:39:18;16.65;;;3.92;;
33268;SDS011;19640;50.944;5.260;2023-02-01T06:41:47;17.08;;;2.65;;
33268;SDS011;19640;50.944;5.260;2023-02-01T06:44:13;17.50;;;2.78;;
33268;SDS011;19640;50.944;5.260;2023-02-01T06:46:40;19.48;;;2.53;;
33268;SDS011;19640;50.944;5.260;2023-02-01T06:49:05;17.35;;;2.72;;
33268;SDS011;19640;50.944;5.260;2023-02-01T06:51:31;19.42;;;2.92;;
33268;SDS011;19640;50.944;5.260;2023-02-01T06:53:57;12.48;;;3.08;;
33268;SDS011;19640;50.944;5.260;2023-02-01T06:56:23;22.25;;;2.95;;
33268;SDS011;19640;50.944;5.260;2023-02-01T06:58:49;13.85;;;3.20;;
33268;SDS011;19640;50.944;5.260;2023-02-01T07:01:15;21.70;;;3.20;;
33268;SDS011;19640;50.944;5.260;2023-02-01T07:03:41;17.25;;;3.42;;
33268;SDS011;19640;50.944;5.260;2023-02-01T07:06:07;10.38;;;2.90;;
33268;SDS011;19640;50.944;5.260;2023-02-01T07:08:34;12.48;;;2.55;;
33268;SDS011;19640;50.944;5.260;2023-02-01T07:11:02;13.00;;;3.92;;
33268;SDS011;19640;50.944;5.260;2023-02-01T07:13:29;28.92;;;3.50;;
33268;SDS011;19640;50.944;5.260;2023-02-01T07:15:57;28.33;;;3.78;;
33268;SDS011;19640;50.944;5.260;2023-02-01T07:18:27;21.85;;;2.88;;
33268;SDS011;19640;50.944;5.260;2023-02-01T07:20:53;19.15;;;2.85;;
33268;SDS011;19640;50.944;5.260;2023-02-01T07:23:19;21.15;;;3.08;;
33268;SDS011;19640;50.944;5.260;2023-02-01T07:25:45;26.95;;;3.22;;
33268;SDS011;19640;50.944;5.260;2023-02-01T07:28:11;13.65;;;2.38;;
33268;SDS011;19640;50.944;5.260;2023-02-01T07:30:37;17.70;;;2.78;;
33268;SDS011;19640;50.944;5.260;2023-02-01T07:33:03;24.10;;;3.17;;
33268;SDS011;19640;50.944;5.260;2023-02-01T07:35:30;12.52;;;2.55;;
33268;SDS011;19640;50.944;5.260;2023-02-01T07:37:56;18.52;;;3.78;;
33268;SDS011;19640;50.944;5.260;2023-02-01T07:40:22;16.83;;;4.40;;
33268;SDS011;19640;50.944;5.260;2023-02-01T07:42:53;14.30;;;2.63;;
33268;SDS011;19640;50.944;5.260;2023-02-01T07:45:20;18.40;;;2.85;;
33268;SDS011;19640;50.944;5.260;2023-02-01T07:47:46;23.15;;;2.80;;
33268;SDS011;19640;50.944;5.260;2023-02-01T07:50:12;12.98;;;3.08;;
33268;SDS011;19640;50.944;5.260;2023-02-01T07:52:38;18.00;;;3.28;;
33268;SDS011;19640;50.944;5.260;2023-02-01T07:55:05;18.27;;;2.85;;
33268;SDS011;19640;50.944;5.260;2023-02-01T07:57:31;14.45;;;3.08;;
33268;SDS011;19640;50.944;5.260;2023-02-01T07:59:57;23.98;;;3.53;;
33268;SDS011;19640;50.944;5.260;2023-02-01T08:02:41;19.40;;;3.22;;
33268;SDS011;19640;50.944;5.260;2023-02-01T08:05:07;10.63;;;2.60;;
33268;SDS011;19640;50.944;5.260;2023-02-01T08:07:33;24.00;;;3.47;;
33268;SDS011;19640;50.944;5.260;2023-02-01T08:09:58;16.27;;;2.85;;
33268;SDS011;19640;50.944;5.260;2023-02-01T08:12:25;15.68;;;2.67;;
33268;SDS011;19640;50.944;5.260;2023-02-01T08:14:52;19.15;;;2.60;;
33268;SDS011;19640;50.944;5.260;2023-02-01T08:17:19;24.02;;;4.22;;
33268;SDS011;19640;50.944;5.260;2023-02-01T08:19:45;18.25;;;3.28;;
33268;SDS011;19640;50.944;5.260;2023-02-01T08:22:10;13.70;;;2.90;;
33268;SDS011;19640;50.944;5.260;2023-02-01T08:24:36;16.23;;;3.13;;
33268;SDS011;19640;50.944;5.260;2023-02-01T08:27:04;22.23;;;3.10;;
33268;SDS011;19640;50.944;5.260;2023-02-01T08:29:30;17.98;;;3.00;;
33268;SDS011;19640;50.944;5.260;2023-02-01T08:31:56;15.20;;;4.30;;
33268;SDS011;19640;50.944;5.260;2023-02-01T08:34:22;18.27;;;3.15;;
33268;SDS011;19640;50.944;5.260;2023-02-01T08:36:48;15.32;;;2.97;;
33268;SDS011;19640;50.944;5.260;2023-02-01T08:39:14;18.35;;;3.05;;
33268;SDS011;19640;50.944;5.260;2023-02-01T08:41:40;13.93;;;2.22;;
33268;SDS011;19640;50.944;5.260;2023-02-01T08:44:07;16.70;;;2.72;;
33268;SDS011;19640;50.944;5.260;2023-02-01T08:46:33;13.95;;;2.63;;
33268;SDS011;19640;50.944;5.260;2023-02-01T08:48:58;17.08;;;2.90;;
33268;SDS011;19640;50.944;5.260;2023-02-01T08:51:24;14.02;;;2.17;;
33268;SDS011;19640;50.944;5.260;2023-02-01T08:53:50;13.57;;;2.65;;
33268;SDS011;19640;50.944;5.260;2023-02-01T08:56:16;12.63;;;2.67;;
33268;SDS011;19640;50.944;5.260;2023-02-01T08:58:43;12.38;;;3.00;;
33268;SDS011;19640;50.944;5.260;2023-02-01T09:01:10;17.70;;;2.47;;
33268;SDS011;19640;50.944;5.260;2023-02-01T09:03:37;22.83;;;3.03;;
33268;SDS011;19640;50.944;5.260;2023-02-01T09:06:04;19.58;;;2.60;;
33268;SDS011;19640;50.944;5.260;2023-02-01T09:08:35;18.30;;;2.33;;
33268;SDS011;19640;50.944;5.260;2023-02-01T09:11:02;20.85;;;2.97;;
33268;SDS011;19640;50.944;5.260;2023-02-01T09:13:31;19.70;;;2.92;;
33268;SDS011;19640;50.944;5.260;2023-02-01T09:15:58;18.20;;;3.17;;
33268;SDS011;19640;50.944;5.260;2023-02-01T09:18:24;16.15;;;2.75;;
33268;SDS011;19640;50.944;5.260;2023-02-01T09:20:50;21.42;;;2.78;;
33268;SDS011;19640;50.944;5.260;2023-02-01T09:23:16;13.20;;;2.60;;
33268;SDS011;19640;50.944;5.260;2023-02-01T09:25:42;15.27;;;3.15;;
33268;SDS011;19640;50.944;5.260;2023-02-01T09:28:09;23.27;;;4.22;;
33268;SDS011;19640;50.944;5.260;2023-02-01T09:30:35;17.63;;;3.42;;
33268;SDS011;19640;50.944;5.260;2023-02-01T09:33:02;13.82;;;3.10;;
33268;SDS011;19640;50.944;5.260;2023-02-01T09:35:28;12.88;;;2.63;;
33268;SDS011;19640;50.944;5.260;2023-02-01T09:37:54;16.13;;;2.97;;
33268;SDS011;19640;50.944;5.260;2023-02-01T09:40:20;22.83;;;3.40;;
33268;SDS011;19640;50.944;5.260;2023-02-01T09:48:54;19.40;;;3.67;;
33268;SDS011;19640;50.944;5.260;2023-02-01T09:51:26;18.48;;;3.17;;
33268;SDS011;19640;50.944;5.260;2023-02-01T09:54:05;12.82;;;2.15;;
33268;SDS011;19640;50.944;5.260;2023-02-01T09:56:47;14.95;;;3.55;;
33268;SDS011;19640;50.944;5.260;2023-02-01T09:59:22;10.63;;;3.60;;
33268;SDS011;19640;50.944;5.260;2023-02-01T10:04:26;20.73;;;2.97;;
33268;SDS011;19640;50.944;5.260;2023-02-01T10:06:56;15.23;;;2.55;;
33268;SDS011;19640;50.944;5.260;2023-02-01T10:09:42;12.00;;;3.38;;
33268;SDS011;19640;50.944;5.260;2023-02-01T10:15:23;17.95;;;3.17;;
33268;SDS011;19640;50.944;5.260;2023-02-01T10:23:31;22.13;;;3.25;;
33268;SDS011;19640;50.944;5.260;2023-02-01T10:26:25;19.23;;;3.40;;
33268;SDS011;19640;50.944;5.260;2023-02-01T10:29:01;24.50;;;3.88;;
33268;SDS011;19640;50.944;5.260;2023-02-01T10:31:30;15.48;;;3.05;;
33268;SDS011;19640;50.944;5.260;2023-02-01T10:34:01;14.07;;;2.70;;
33268;SDS011;19640;50.944;5.260;2023-02-01T10:36:41;8.33;;;3.13;;
33268;SDS011;19640;50.944;5.260;2023-02-01T10:39:15;8.73;;;2.40;;
33268;SDS011;19640;50.944;5.260;2023-02-01T10:41:41;18.52;;;3.53;;
33268;SDS011;19640;50.944;5.260;2023-02-01T10:44:11;7.50;;;2.15;;
33268;SDS011;19640;50.944;5.260;2023-02-01T10:46:40;16.05;;;2.97;;
33268;SDS011;19640;50.944;5.260;2023-02-01T10:49:08;14.20;;;3.47;;
33268;SDS011;19640;50.944;5.260;2023-02-01T10:51:49;21.13;;;2.70;;
33268;SDS011;19640;50.944;5.260;2023-02-01T10:54:21;13.98;;;2.40;;
33268;SDS011;19640;50.944;5.260;2023-02-01T10:56:56;18.75;;;4.05;;
33268;SDS011;19640;50.944;5.260;2023-02-01T10:59:24;14.15;;;2.72;;
33268;SDS011;19640;50.944;5.260;2023-02-01T11:01:57;12.00;;;2.60;;
33268;SDS011;19640;50.944;5.260;2023-02-01T11:04:25;12.63;;;2.38;;
33268;SDS011;19640;50.944;5.260;2023-02-01T11:06:54;12.07;;;2.10;;
33268;SDS011;19640;50.944;5.260;2023-02-01T11:09:30;10.73;;;2.60;;
33268;SDS011;19640;50.944;5.260;2023-02-01T11:12:07;9.23;;;2.00;;
33268;SDS011;19640;50.944;5.260;2023-02-01T11:14:48;12.10;;;2.83;;
33268;SDS011;19640;50.944;5.260;2023-02-01T11:19:43;11.88;;;3.17;;
33268;SDS011;19640;50.944;5.260;2023-02-01T11:22:10;10.73;;;2.13;;
33268;SDS011;19640;50.944;5.260;2023-02-01T11:24:38;11.73;;;2.13;;
33268;SDS011;19640;50.944;5.260;2023-02-01T11:27:14;6.87;;;2.43;;
33268;SDS011;19640;50.944;5.260;2023-02-01T11:29:43;12.20;;;2.45;;
33268;SDS011;19640;50.944;5.260;2023-02-01T11:32:13;18.25;;;3.60;;
33268;SDS011;19640;50.944;5.260;2023-02-01T11:34:42;12.80;;;2.67;;
33268;SDS011;19640;50.944;5.260;2023-02-01T11:37:26;13.35;;;2.05;;
33268;SDS011;19640;50.944;5.260;2023-02-01T11:40:26;10.45;;;2.45;;
33268;SDS011;19640;50.944;5.260;2023-02-01T11:42:58;13.30;;;2.25;;
33268;SDS011;19640;50.944;5.260;2023-02-01T11:45:27;13.13;;;2.38;;
33268;SDS011;19640;50.944;5.260;2023-02-01T11:47:58;11.07;;;2.20;;
33268;SDS011;19640;50.944;5.260;2023-02-01T11:50:28;10.50;;;2.22;;
33268;SDS011;19640;50.944;5.260;2023-02-01T11:53:16;7.07;;;1.75;;
33268;SDS011;19640;50.944;5.260;2023-02-01T12:06:31;8.75;;;1.75;;
33268;SDS011;19640;50.944;5.260;2023-02-01T12:30:15;11.07;;;2.20;;
33268;SDS011;19640;50.944;5.260;2023-02-01T12:43:50;9.40;;;1.58;;
33268;SDS011;19640;50.944;5.260;2023-02-01T12:51:21;7.57;;;1.60;;
33268;SDS011;19640;50.944;5.260;2023-02-01T12:56:38;10.73;;;1.80;;
33268;SDS011;19640;50.944;5.260;2023-02-01T13:02:11;7.35;;;1.60;;
33268;SDS011;19640;50.944;5.260;2023-02-01T13:04:57;11.23;;;2.00;;
33268;SDS011;19640;50.944;5.260;2023-02-01T13:07:29;8.30;;;1.90;;
33268;SDS011;19640;50.944;5.260;2023-02-01T13:10:21;10.55;;;2.17;;
33268;SDS011;19640;50.944;5.260;2023-02-01T13:16:17;4.32;;;1.50;;
33268;SDS011;19640;50.944;5.260;2023-02-01T13:19:25;9.43;;;2.47;;
33268;SDS011;19640;50.944;5.260;2023-02-01T13:22:06;12.25;;;2.13;;
33268;SDS011;19640;50.944;5.260;2023-02-01T13:24:50;12.25;;;1.98;;
33268;SDS011;19640;50.944;5.260;2023-02-01T13:27:20;9.48;;;2.05;;
33268;SDS011;19640;50.944;5.260;2023-02-01T13:30:06;6.22;;;1.33;;
33268;SDS011;19640;50.944;5.260;2023-02-01T13:33:00;7.25;;;1.42;;
33268;SDS011;19640;50.944;5.260;2023-02-01T13:41:17;8.88;;;1.50;;
33268;SDS011;19640;50.944;5.260;2023-02-01T13:44:01;8.15;;;2.00;;
33268;SDS011;19640;50.944;5.260;2023-02-01T13:46:31;5.07;;;1.50;;
33268;SDS011;19640;50.944;5.260;2023-02-01T13:49:14;8.90;;;1.77;;
33268;SDS011;19640;50.944;5.260;2023-02-01T13:51:56;11.05;;;1.60;;
33268;SDS011;19640;50.944;5.260;2023-02-01T13:54:24;8.45;;;1.50;;
33268;SDS011;19640;50.944;5.260;2023-02-01T13:56:59;16.58;;;1.73;;
33268;SDS011;19640;50.944;5.260;2023-02-01T14:05:04;5.82;;;1.48;;
33268;SDS011;19640;50.944;5.260;2023-02-01T14:16:11;16.00;;;2.80;;
33268;SDS011;19640;50.944;5.260;2023-02-01T14:23:44;11.10;;;1.80;;
33268;SDS011;19640;50.944;5.260;2023-02-01T14:26:14;5.72;;;1.30;;
33268;SDS011;19640;50.944;5.260;2023-02-01T14:28:54;3.78;;;1.23;;
33268;SDS011;19640;50.944;5.260;2023-02-01T14:44:52;6.68;;;1.40;;
33268;SDS011;19640;50.944;5.260;2023-02-01T14:50:03;8.90;;;1.50;;
33268;SDS011;19640;50.944;5.260;2023-02-01T14:52:36;8.75;;;1.85;;
33268;SDS011;19640;50.944;5.260;2023-02-01T14:55:11;4.55;;;1.48;;
33268;SDS011;19640;50.944;5.260;2023-02-01T14:57:42;9.30;;;1.92;;
33268;SDS011;19640;50.944;5.260;2023-02-01T15:02:52;9.45;;;1.88;;
33268;SDS011;19640;50.944;5.260;2023-02-01T15:05:30;11.32;;;1.70;;
33268;SDS011;19640;50.944;5.260;2023-02-01T15:08:32;6.38;;;1.20;;
33268;SDS011;19640;50.944;5.260;2023-02-01T15:10:58;8.50;;;2.05;;
33268;SDS011;19640;50.944;5.260;2023-02-01T15:13:31;10.43;;;2.10;;
33268;SDS011;19640;50.944;5.260;2023-02-01T15:16:01;8.77;;;1.70;;
33268;SDS011;19640;50.944;5.260;2023-02-01T15:18:30;8.93;;;1.80;;
33268;SDS011;19640;50.944;5.260;2023-02-01T15:20:58;7.55;;;1.48;;
33268;SDS011;19640;50.944;5.260;2023-02-01T15:23:25;8.85;;;1.30;;
33268;SDS011;19640;50.944;5.260;2023-02-01T15:25:51;10.07;;;1.33;;
33268;SDS011;19640;50.944;5.260;2023-02-01T15:28:17;11.88;;;1.88;;
33268;SDS011;19640;50.944;5.260;2023-02-01T15:30:53;4.32;;;1.58;;
33268;SDS011;19640;50.944;5.260;2023-02-01T15:33:28;8.60;;;1.80;;
33268;SDS011;19640;50.944;5.260;2023-02-01T15:36:11;8.65;;;1.40;;
33268;SDS011;19640;50.944;5.260;2023-02-01T15:38:45;13.73;;;2.35;;
33268;SDS011;19640;50.944;5.260;2023-02-01T15:43:43;10.13;;;1.60;;
33268;SDS011;19640;50.944;5.260;2023-02-01T15:46:22;5.35;;;2.05;;
33268;SDS011;19640;50.944;5.260;2023-02-01T15:49:02;9.45;;;2.33;;
33268;SDS011;19640;50.944;5.260;2023-02-01T15:51:30;9.55;;;1.98;;
33268;SDS011;19640;50.944;5.260;2023-02-01T15:54:04;9.07;;;3.00;;
33268;SDS011;19640;50.944;5.260;2023-02-01T15:56:35;11.73;;;2.60;;
33268;SDS011;19640;50.944;5.260;2023-02-01T15:59:04;11.63;;;2.38;;
33268;SDS011;19640;50.944;5.260;2023-02-01T16:01:37;12.65;;;1.60;;
33268;SDS011;19640;50.944;5.260;2023-02-01T16:06:53;9.20;;;2.05;;
33268;SDS011;19640;50.944;5.260;2023-02-01T16:09:24;8.30;;;2.00;;
33268;SDS011;19640;50.944;5.260;2023-02-01T16:12:01;11.70;;;1.65;;
33268;SDS011;19640;50.944;5.260;2023-02-01T16:14:28;9.18;;;1.65;;
33268;SDS011;19640;50.944;5.260;2023-02-01T16:16:56;11.90;;;2.20;;
33268;SDS011;19640;50.944;5.260;2023-02-01T16:19:23;8.77;;;1.38;;
33268;SDS011;19640;50.944;5.260;2023-02-01T16:21:53;13.10;;;2.25;;
33268;SDS011;19640;50.944;5.260;2023-02-01T16:24:19;10.48;;;1.98;;
33268;SDS011;19640;50.944;5.260;2023-02-01T16:26:48;18.98;;;2.28;;
33268;SDS011;19640;50.944;5.260;2023-02-01T16:29:13;10.38;;;2.33;;
33268;SDS011;19640;50.944;5.260;2023-02-01T16:31:40;9.85;;;2.13;;
33268;SDS011;19640;50.944;5.260;2023-02-01T16:34:09;12.80;;;2.53;;
33268;SDS011;19640;50.944;5.260;2023-02-01T16:36:39;8.07;;;1.95;;
33268;SDS011;19640;50.944;5.260;2023-02-01T16:39:05;8.18;;;1.90;;
33268;SDS011;19640;50.944;5.260;2023-02-01T16:41:33;14.57;;;3.38;;
33268;SDS011;19640;50.944;5.260;2023-02-01T16:43:58;15.45;;;2.17;;
33268;SDS011;19640;50.944;5.260;2023-02-01T16:46:25;7.72;;;1.90;;
33268;SDS011;19640;50.944;5.260;2023-02-01T16:48:54;9.10;;;2.17;;
33268;SDS011;19640;50.944;5.260;2023-02-01T16:51:22;12.70;;;4.43;;
33268;SDS011;19640;50.944;5.260;2023-02-01T16:53:50;25.67;;;11.25;;
33268;SDS011;19640;50.944;5.260;2023-02-01T16:58:46;15.27;;;2.30;;
33268;SDS011;19640;50.944;5.260;2023-02-01T17:01:13;15.95;;;2.45;;
33268;SDS011;19640;50.944;5.260;2023-02-01T17:03:40;14.93;;;2.58;;
33268;SDS011;19640;50.944;5.260;2023-02-01T17:06:06;10.23;;;3.25;;
33268;SDS011;19640;50.944;5.260;2023-02-01T17:08:35;11.38;;;2.00;;
33268;SDS011;19640;50.944;5.260;2023-02-01T17:11:04;17.20;;;2.75;;
33268;SDS011;19640;50.944;5.260;2023-02-01T17:13:31;17.05;;;2.55;;
33268;SDS011;19640;50.944;5.260;2023-02-01T17:15:58;16.33;;;2.90;;
33268;SDS011;19640;50.944;5.260;2023-02-01T17:18:27;7.97;;;2.33;;
33268;SDS011;19640;50.944;5.260;2023-02-01T17:20:56;9.85;;;2.05;;
33268;SDS011;19640;50.944;5.260;2023-02-01T17:23:23;8.13;;;2.60;;
33268;SDS011;19640;50.944;5.260;2023-02-01T17:25:49;8.45;;;2.00;;
33268;SDS011;19640;50.944;5.260;2023-02-01T17:28:15;12.95;;;2.78;;